Aeroporto :







RITROVATECI SU...

 
LOGIN :

Iscrizione | Disclaimer

   EN    FR    IT 

 









Sommario :    VFR   VFR Marginale   IFR   IFR Intensivo   IFR Molto Intensivo
Visibilità : 
Base nubi : 
>= 8 km
>= 3000ft
5 / 8 km
1000 / 3000 ft
1500m / 5 km
500 / 1000 ft
800 / 1500m
200 / 500 ft
< 800m
< 200 ft
Simboli :   Temporali  Nebbia  Neve Forte  Precipitazioni Forti  Vento > 20 kt







- Altitudine del aeroporto : 228 ft


KFSO - Franklin County State

ULTIMO METAR :
  • 230555Z AUTO 35003KT 10SM CLR 08/02 A3007 RMK AO2 T00820024 10141 20082

METARs OBSOLETI :
  • 230536Z AUTO 35005KT 10SM CLR 09/02 A3007 RMK AO2 T00850022
  • 230516Z AUTO 01005KT 10SM CLR 09/02 A3008 RMK AO2 T00850024
  • 230455Z AUTO 36006KT 10SM CLR 09/03 A3009 RMK AO2 T00870026 401920049
  • 230435Z AUTO 35005KT 10SM CLR 09/03 A3009 RMK AO2 T00900031
  • 230416Z AUTO 34005KT 10SM CLR 09/04 A3010 RMK AO2 T00900035
  • 230356Z AUTO 35005KT 10SM CLR 09/04 A3010 RMK AO2 T00930040
  • 230336Z AUTO 32003KT 10SM CLR 09/05 A3011 RMK AO2 T00930045
  • 230316Z AUTO 34004KT 10SM CLR 10/04 A3011 RMK AO2 T00980044

TAF N/A
FIR KZBW / America del Nord



MetMap, La meteo Aeronautica in un colpo d'occhio ! - Copyright ORBIFLY Dicembre 2007 - Disclaimer

ORBIFLY MET'MAP TEAM :

Programmazione e sviluppo : Alexandra Zaïnal
Concezione e sviluppo : Baudouin d'Aumeries
Co-Programmazione e sviluppo : Marc-Olivier Méhu
Supporto tecnico e logistico : Manuel Goepfert
Aiuto per la traduzione : Arnaldo La Scala

Contatto : metmap@orbifly.com




FONTI E CREDITI :

   NOAA